sensor_id;sensor_type;location;lat;lon;timestamp;temperature;humidity
44707;DHT22;30433;45.596;8.408;2023-03-13T00:01:26;8.10;99.90
44707;DHT22;30433;45.596;8.408;2023-03-13T00:07:29;8.00;99.90
44707;DHT22;30433;45.596;8.408;2023-03-13T00:13:31;7.90;99.90
44707;DHT22;30433;45.596;8.408;2023-03-13T00:19:33;8.10;99.90
44707;DHT22;30433;45.596;8.408;2023-03-13T00:25:36;7.60;99.90
44707;DHT22;30433;45.596;8.408;2023-03-13T00:31:38;7.40;99.90
44707;DHT22;30433;45.596;8.408;2023-03-13T00:37:40;7.80;99.90
44707;DHT22;30433;45.596;8.408;2023-03-13T00:43:43;8.00;99.90
44707;DHT22;30433;45.596;8.408;2023-03-13T00:49:45;7.70;99.90
44707;DHT22;30433;45.596;8.408;2023-03-13T00:55:51;8.00;99.90
44707;DHT22;30433;45.596;8.408;2023-03-13T01:01:54;8.10;99.90
44707;DHT22;30433;45.596;8.408;2023-03-13T01:07:56;8.30;99.90
44707;DHT22;30433;45.596;8.408;2023-03-13T01:13:59;8.30;99.90
44707;DHT22;30433;45.596;8.408;2023-03-13T01:20:02;8.40;99.90
44707;DHT22;30433;45.596;8.408;2023-03-13T01:26:05;8.50;99.90
44707;DHT22;30433;45.596;8.408;2023-03-13T01:32:07;8.40;99.90
44707;DHT22;30433;45.596;8.408;2023-03-13T01:38:10;8.50;99.90
44707;DHT22;30433;45.596;8.408;2023-03-13T01:44:17;8.60;99.90
44707;DHT22;30433;45.596;8.408;2023-03-13T01:50:21;8.60;99.90
44707;DHT22;30433;45.596;8.408;2023-03-13T01:56:25;8.80;99.90
44707;DHT22;30433;45.596;8.408;2023-03-13T02:02:29;8.50;99.90
44707;DHT22;30433;45.596;8.408;2023-03-13T02:08:31;8.40;99.90
44707;DHT22;30433;45.596;8.408;2023-03-13T02:14:38;8.60;99.90
44707;DHT22;30433;45.596;8.408;2023-03-13T02:20:42;8.50;99.90
44707;DHT22;30433;45.596;8.408;2023-03-13T02:26:45;8.50;99.90
44707;DHT22;30433;45.596;8.408;2023-03-13T02:32:48;8.60;99.90
44707;DHT22;30433;45.596;8.408;2023-03-13T02:38:50;8.90;99.90
44707;DHT22;30433;45.596;8.408;2023-03-13T02:44:55;8.70;99.90
44707;DHT22;30433;45.596;8.408;2023-03-13T02:50:56;8.40;99.90
44707;DHT22;30433;45.596;8.408;2023-03-13T02:56:59;8.80;99.90
44707;DHT22;30433;45.596;8.408;2023-03-13T03:03:03;8.90;99.90
44707;DHT22;30433;45.596;8.408;2023-03-13T03:09:05;8.70;99.90
44707;DHT22;30433;45.596;8.408;2023-03-13T03:15:08;8.70;99.90
44707;DHT22;30433;45.596;8.408;2023-03-13T03:21:11;8.60;99.90
44707;DHT22;30433;45.596;8.408;2023-03-13T03:27:13;8.80;99.90
44707;DHT22;30433;45.596;8.408;2023-03-13T03:33:15;8.80;99.90
44707;DHT22;30433;45.596;8.408;2023-03-13T03:39:18;8.90;99.90
44707;DHT22;30433;45.596;8.408;2023-03-13T03:45:20;8.90;99.90
44707;DHT22;30433;45.596;8.408;2023-03-13T03:51:22;8.80;99.90
44707;DHT22;30433;45.596;8.408;2023-03-13T03:57:25;8.90;99.90
44707;DHT22;30433;45.596;8.408;2023-03-13T04:03:27;9.00;99.90
44707;DHT22;30433;45.596;8.408;2023-03-13T04:09:29;8.80;99.90
44707;DHT22;30433;45.596;8.408;2023-03-13T04:15:32;8.80;99.90
44707;DHT22;30433;45.596;8.408;2023-03-13T04:21:34;9.00;99.90
44707;DHT22;30433;45.596;8.408;2023-03-13T04:27:36;8.70;99.90
44707;DHT22;30433;45.596;8.408;2023-03-13T04:33:40;8.60;99.90
44707;DHT22;30433;45.596;8.408;2023-03-13T04:39:41;8.50;99.90
44707;DHT22;30433;45.596;8.408;2023-03-13T04:45:43;8.50;99.90
44707;DHT22;30433;45.596;8.408;2023-03-13T04:51:47;8.20;99.90
44707;DHT22;30433;45.596;8.408;2023-03-13T04:57:49;8.40;99.90
44707;DHT22;30433;45.596;8.408;2023-03-13T05:03:50;8.70;99.90
44707;DHT22;30433;45.596;8.408;2023-03-13T05:09:54;8.60;99.90
44707;DHT22;30433;45.596;8.408;2023-03-13T05:15:56;8.50;99.90
44707;DHT22;30433;45.596;8.408;2023-03-13T05:21:57;8.50;99.90
44707;DHT22;30433;45.596;8.408;2023-03-13T05:28:01;8.40;99.90
44707;DHT22;30433;45.596;8.408;2023-03-13T05:34:03;8.40;99.90
44707;DHT22;30433;45.596;8.408;2023-03-13T05:40:05;8.30;99.90
44707;DHT22;30433;45.596;8.408;2023-03-13T05:46:09;8.20;99.90
44707;DHT22;30433;45.596;8.408;2023-03-13T05:52:11;8.30;99.90
44707;DHT22;30433;45.596;8.408;2023-03-13T05:58:13;8.30;99.90
44707;DHT22;30433;45.596;8.408;2023-03-13T06:04:16;8.10;99.90
44707;DHT22;30433;45.596;8.408;2023-03-13T06:10:18;8.20;99.90
44707;DHT22;30433;45.596;8.408;2023-03-13T06:16:20;8.20;99.90
44707;DHT22;30433;45.596;8.408;2023-03-13T06:22:23;8.20;99.90
44707;DHT22;30433;45.596;8.408;2023-03-13T06:28:25;8.50;99.90
44707;DHT22;30433;45.596;8.408;2023-03-13T06:34:27;8.40;99.90
44707;DHT22;30433;45.596;8.408;2023-03-13T06:40:30;8.50;99.90
44707;DHT22;30433;45.596;8.408;2023-03-13T06:46:32;8.40;99.90
44707;DHT22;30433;45.596;8.408;2023-03-13T06:52:34;8.50;99.90
44707;DHT22;30433;45.596;8.408;2023-03-13T06:58:38;8.70;99.90
44707;DHT22;30433;45.596;8.408;2023-03-13T07:04:40;8.80;99.90
44707;DHT22;30433;45.596;8.408;2023-03-13T07:10:42;9.00;99.90
44707;DHT22;30433;45.596;8.408;2023-03-13T07:16:49;9.20;99.90
44707;DHT22;30433;45.596;8.408;2023-03-13T07:22:51;9.50;99.90
44707;DHT22;30433;45.596;8.408;2023-03-13T07:28:54;9.70;99.90
44707;DHT22;30433;45.596;8.408;2023-03-13T07:34:58;9.90;99.90
44707;DHT22;30433;45.596;8.408;2023-03-13T07:40:59;10.00;99.90
44707;DHT22;30433;45.596;8.408;2023-03-13T07:47:01;10.10;99.90
44707;DHT22;30433;45.596;8.408;2023-03-13T07:53:04;10.20;99.90
44707;DHT22;30433;45.596;8.408;2023-03-13T07:59:06;10.20;99.90
44707;DHT22;30433;45.596;8.408;2023-03-13T08:05:08;10.20;99.60
44707;DHT22;30433;45.596;8.408;2023-03-13T08:11:12;10.40;99.40
44707;DHT22;30433;45.596;8.408;2023-03-13T08:17:14;10.40;99.00
44707;DHT22;30433;45.596;8.408;2023-03-13T08:23:16;10.70;98.90
44707;DHT22;30433;45.596;8.408;2023-03-13T08:29:19;10.50;98.40
44707;DHT22;30433;45.596;8.408;2023-03-13T08:35:21;10.50;98.50
44707;DHT22;30433;45.596;8.408;2023-03-13T08:41:23;10.60;98.40
44707;DHT22;30433;45.596;8.408;2023-03-13T08:47:27;10.60;98.40
44707;DHT22;30433;45.596;8.408;2023-03-13T08:53:29;10.60;98.10
44707;DHT22;30433;45.596;8.408;2023-03-13T08:59:32;10.50;97.70
44707;DHT22;30433;45.596;8.408;2023-03-13T09:05:37;10.60;97.90
44707;DHT22;30433;45.596;8.408;2023-03-13T09:11:40;10.80;98.20
44707;DHT22;30433;45.596;8.408;2023-03-13T09:17:42;10.60;98.00
44707;DHT22;30433;45.596;8.408;2023-03-13T09:23:45;10.80;98.30
44707;DHT22;30433;45.596;8.408;2023-03-13T09:29:47;10.90;98.30
44707;DHT22;30433;45.596;8.408;2023-03-13T09:35:49;10.90;97.90
44707;DHT22;30433;45.596;8.408;2023-03-13T09:41:53;11.20;98.10
44707;DHT22;30433;45.596;8.408;2023-03-13T09:48:00;11.20;97.60
44707;DHT22;30433;45.596;8.408;2023-03-13T09:54:04;11.30;97.60
44707;DHT22;30433;45.596;8.408;2023-03-13T10:00:11;11.30;97.80
44707;DHT22;30433;45.596;8.408;2023-03-13T10:06:14;11.30;97.90
44707;DHT22;30433;45.596;8.408;2023-03-13T10:12:19;11.50;97.90
44707;DHT22;30433;45.596;8.408;2023-03-13T10:18:22;11.90;97.90
44707;DHT22;30433;45.596;8.408;2023-03-13T10:24:28;11.70;97.90
44707;DHT22;30433;45.596;8.408;2023-03-13T10:30:33;11.80;97.70
44707;DHT22;30433;45.596;8.408;2023-03-13T10:36:40;11.50;97.30
44707;DHT22;30433;45.596;8.408;2023-03-13T10:42:43;11.60;97.50
44707;DHT22;30433;45.596;8.408;2023-03-13T10:48:45;11.80;97.50
44707;DHT22;30433;45.596;8.408;2023-03-13T10:54:49;12.10;97.90
44707;DHT22;30433;45.596;8.408;2023-03-13T11:00:50;12.20;97.60
44707;DHT22;30433;45.596;8.408;2023-03-13T11:06:52;12.70;97.50
44707;DHT22;30433;45.596;8.408;2023-03-13T11:13:00;12.40;97.40
44707;DHT22;30433;45.596;8.408;2023-03-13T11:19:12;12.50;97.00
44707;DHT22;30433;45.596;8.408;2023-03-13T11:25:18;12.70;97.20
44707;DHT22;30433;45.596;8.408;2023-03-13T11:31:23;12.80;97.20
44707;DHT22;30433;45.596;8.408;2023-03-13T11:37:26;12.80;97.50
44707;DHT22;30433;45.596;8.408;2023-03-13T11:43:31;13.00;97.00
44707;DHT22;30433;45.596;8.408;2023-03-13T11:49:42;13.00;96.80
44707;DHT22;30433;45.596;8.408;2023-03-13T11:55:49;13.40;96.40
44707;DHT22;30433;45.596;8.408;2023-03-13T12:01:53;13.10;96.60
44707;DHT22;30433;45.596;8.408;2023-03-13T12:07:59;12.90;96.30
44707;DHT22;30433;45.596;8.408;2023-03-13T12:14:02;13.30;96.30
44707;DHT22;30433;45.596;8.408;2023-03-13T12:20:07;13.00;96.10
44707;DHT22;30433;45.596;8.408;2023-03-13T12:26:13;13.30;96.40
44707;DHT22;30433;45.596;8.408;2023-03-13T12:32:17;13.60;96.50
44707;DHT22;30433;45.596;8.408;2023-03-13T12:38:22;13.50;96.00
44707;DHT22;30433;45.596;8.408;2023-03-13T12:44:26;13.30;95.70
44707;DHT22;30433;45.596;8.408;2023-03-13T12:50:31;13.80;96.80
44707;DHT22;30433;45.596;8.408;2023-03-13T12:56:39;14.10;96.10
44707;DHT22;30433;45.596;8.408;2023-03-13T13:02:44;13.60;96.00
44707;DHT22;30433;45.596;8.408;2023-03-13T13:08:47;14.10;96.30
44707;DHT22;30433;45.596;8.408;2023-03-13T13:21:20;14.70;95.80
44707;DHT22;30433;45.596;8.408;2023-03-13T13:33:42;14.60;95.10
44707;DHT22;30433;45.596;8.408;2023-03-13T13:39:46;15.30;95.00
44707;DHT22;30433;45.596;8.408;2023-03-13T13:45:55;15.20;94.90
44707;DHT22;30433;45.596;8.408;2023-03-13T13:52:18;15.10;94.40
44707;DHT22;30433;45.596;8.408;2023-03-13T13:58:22;15.10;94.70
44707;DHT22;30433;45.596;8.408;2023-03-13T14:04:26;14.70;95.00
44707;DHT22;30433;45.596;8.408;2023-03-13T14:10:34;14.70;94.50
44707;DHT22;30433;45.596;8.408;2023-03-13T14:16:38;14.80;94.60
44707;DHT22;30433;45.596;8.408;2023-03-13T14:22:44;15.00;94.00
44707;DHT22;30433;45.596;8.408;2023-03-13T14:28:47;14.80;94.70
44707;DHT22;30433;45.596;8.408;2023-03-13T14:34:50;14.70;94.40
44707;DHT22;30433;45.596;8.408;2023-03-13T14:40:53;14.60;94.80
44707;DHT22;30433;45.596;8.408;2023-03-13T14:46:55;14.40;95.10
44707;DHT22;30433;45.596;8.408;2023-03-13T14:53:00;14.40;94.70
44707;DHT22;30433;45.596;8.408;2023-03-13T14:59:05;14.60;94.60
44707;DHT22;30433;45.596;8.408;2023-03-13T15:11:26;14.40;95.00
44707;DHT22;30433;45.596;8.408;2023-03-13T15:17:29;14.30;95.10
44707;DHT22;30433;45.596;8.408;2023-03-13T15:23:30;14.30;95.90
44707;DHT22;30433;45.596;8.408;2023-03-13T15:29:34;14.20;95.70
44707;DHT22;30433;45.596;8.408;2023-03-13T15:35:36;14.10;95.80
44707;DHT22;30433;45.596;8.408;2023-03-13T15:41:38;14.10;95.90
44707;DHT22;30433;45.596;8.408;2023-03-13T15:47:41;13.70;96.50
44707;DHT22;30433;45.596;8.408;2023-03-13T15:53:43;13.70;96.20
44707;DHT22;30433;45.596;8.408;2023-03-13T15:59:45;13.50;96.40
44707;DHT22;30433;45.596;8.408;2023-03-13T16:05:49;13.40;96.40
44707;DHT22;30433;45.596;8.408;2023-03-13T16:11:51;13.30;96.60
44707;DHT22;30433;45.596;8.408;2023-03-13T16:17:53;13.20;96.80
44707;DHT22;30433;45.596;8.408;2023-03-13T16:23:56;13.10;96.80
44707;DHT22;30433;45.596;8.408;2023-03-13T16:29:58;13.00;96.90
44707;DHT22;30433;45.596;8.408;2023-03-13T16:36:01;12.90;96.70
44707;DHT22;30433;45.596;8.408;2023-03-13T16:42:10;12.90;96.70
44707;DHT22;30433;45.596;8.408;2023-03-13T16:48:12;12.80;96.70
44707;DHT22;30433;45.596;8.408;2023-03-13T16:54:17;12.80;96.90
44707;DHT22;30433;45.596;8.408;2023-03-13T17:00:20;12.80;96.80
44707;DHT22;30433;45.596;8.408;2023-03-13T17:06:24;12.80;97.10
44707;DHT22;30433;45.596;8.408;2023-03-13T17:12:26;12.70;97.00
44707;DHT22;30433;45.596;8.408;2023-03-13T17:18:29;12.70;97.10
44707;DHT22;30433;45.596;8.408;2023-03-13T17:24:31;12.70;97.30
44707;DHT22;30433;45.596;8.408;2023-03-13T17:30:33;12.40;97.50
44707;DHT22;30433;45.596;8.408;2023-03-13T17:36:36;12.30;97.70
44707;DHT22;30433;45.596;8.408;2023-03-13T17:42:39;12.40;97.80
44707;DHT22;30433;45.596;8.408;2023-03-13T17:48:40;12.30;98.20
44707;DHT22;30433;45.596;8.408;2023-03-13T17:54:44;12.40;98.20
44707;DHT22;30433;45.596;8.408;2023-03-13T18:00:46;12.40;98.30
44707;DHT22;30433;45.596;8.408;2023-03-13T18:06:48;12.40;98.30
44707;DHT22;30433;45.596;8.408;2023-03-13T18:12:51;12.40;98.20
44707;DHT22;30433;45.596;8.408;2023-03-13T18:18:54;12.10;98.70
44707;DHT22;30433;45.596;8.408;2023-03-13T18:24:55;12.20;98.70
44707;DHT22;30433;45.596;8.408;2023-03-13T18:30:59;12.30;98.50
44707;DHT22;30433;45.596;8.408;2023-03-13T18:37:01;12.20;98.50
44707;DHT22;30433;45.596;8.408;2023-03-13T18:43:04;12.20;98.60
44707;DHT22;30433;45.596;8.408;2023-03-13T18:49:09;12.00;99.40
44707;DHT22;30433;45.596;8.408;2023-03-13T18:55:11;11.90;99.50
44707;DHT22;30433;45.596;8.408;2023-03-13T19:01:14;11.80;99.80
44707;DHT22;30433;45.596;8.408;2023-03-13T19:07:18;11.80;99.90
44707;DHT22;30433;45.596;8.408;2023-03-13T19:13:22;11.90;99.90
44707;DHT22;30433;45.596;8.408;2023-03-13T19:19:24;12.00;99.90
44707;DHT22;30433;45.596;8.408;2023-03-13T19:25:28;11.50;99.90
44707;DHT22;30433;45.596;8.408;2023-03-13T19:31:29;11.50;99.90
44707;DHT22;30433;45.596;8.408;2023-03-13T19:37:31;11.40;99.90
44707;DHT22;30433;45.596;8.408;2023-03-13T19:43:35;11.20;99.90
44707;DHT22;30433;45.596;8.408;2023-03-13T19:49:36;11.20;99.90
44707;DHT22;30433;45.596;8.408;2023-03-13T19:55:38;11.30;99.90
44707;DHT22;30433;45.596;8.408;2023-03-13T20:01:42;11.00;99.90
44707;DHT22;30433;45.596;8.408;2023-03-13T20:07:44;10.90;99.90
44707;DHT22;30433;45.596;8.408;2023-03-13T20:13:46;10.80;99.90
44707;DHT22;30433;45.596;8.408;2023-03-13T20:19:49;10.70;99.90
44707;DHT22;30433;45.596;8.408;2023-03-13T20:25:51;10.70;99.90
44707;DHT22;30433;45.596;8.408;2023-03-13T20:31:54;10.60;99.90
44707;DHT22;30433;45.596;8.408;2023-03-13T20:38:00;10.70;99.90
44707;DHT22;30433;45.596;8.408;2023-03-13T20:44:04;10.60;99.90
44707;DHT22;30433;45.596;8.408;2023-03-13T20:50:06;10.40;99.90
44707;DHT22;30433;45.596;8.408;2023-03-13T20:56:10;10.60;99.90
44707;DHT22;30433;45.596;8.408;2023-03-13T21:02:12;10.50;99.90
44707;DHT22;30433;45.596;8.408;2023-03-13T21:08:14;10.70;99.90
44707;DHT22;30433;45.596;8.408;2023-03-13T21:14:18;10.50;99.90
44707;DHT22;30433;45.596;8.408;2023-03-13T21:20:20;10.50;99.90
44707;DHT22;30433;45.596;8.408;2023-03-13T21:26:22;10.50;99.90
44707;DHT22;30433;45.596;8.408;2023-03-13T21:32:26;10.50;99.90
44707;DHT22;30433;45.596;8.408;2023-03-13T21:38:27;10.50;99.90
44707;DHT22;30433;45.596;8.408;2023-03-13T21:44:29;10.50;99.90
44707;DHT22;30433;45.596;8.408;2023-03-13T21:50:33;10.40;99.90
44707;DHT22;30433;45.596;8.408;2023-03-13T21:56:34;10.20;99.90
44707;DHT22;30433;45.596;8.408;2023-03-13T22:02:36;10.10;99.90
44707;DHT22;30433;45.596;8.408;2023-03-13T22:08:39;10.20;99.90
44707;DHT22;30433;45.596;8.408;2023-03-13T22:14:41;10.10;99.90
44707;DHT22;30433;45.596;8.408;2023-03-13T22:20:43;10.00;99.90
44707;DHT22;30433;45.596;8.408;2023-03-13T22:26:46;10.00;99.90
44707;DHT22;30433;45.596;8.408;2023-03-13T22:32:48;10.20;99.90
44707;DHT22;30433;45.596;8.408;2023-03-13T22:38:50;10.10;99.90
44707;DHT22;30433;45.596;8.408;2023-03-13T22:44:53;9.90;99.90
44707;DHT22;30433;45.596;8.408;2023-03-13T22:50:59;10.00;99.90
44707;DHT22;30433;45.596;8.408;2023-03-13T22:57:01;10.00;99.90
44707;DHT22;30433;45.596;8.408;2023-03-13T23:03:04;10.00;99.90
44707;DHT22;30433;45.596;8.408;2023-03-13T23:09:06;10.10;99.90
44707;DHT22;30433;45.596;8.408;2023-03-13T23:15:09;10.10;99.90
44707;DHT22;30433;45.596;8.408;2023-03-13T23:21:13;9.90;99.90
44707;DHT22;30433;45.596;8.408;2023-03-13T23:27:15;10.20;99.90
44707;DHT22;30433;45.596;8.408;2023-03-13T23:33:17;10.10;99.90
44707;DHT22;30433;45.596;8.408;2023-03-13T23:39:21;10.00;99.90
44707;DHT22;30433;45.596;8.408;2023-03-13T23:45:22;10.10;99.90
44707;DHT22;30433;45.596;8.408;2023-03-13T23:51:24;9.80;99.90
44707;DHT22;30433;45.596;8.408;2023-03-13T23:57:27;9.80;99.90
